Time;durP1;ratioP1;P1;durP2;ratioP2;P2;SDS_P1;SDS_P2;PMS_P1;PMS_P2;Temp;Humidity;BMP_temperature;BMP_pressure;BME280_temperature;BME280_humidity;BME280_pressure;Samples;Min_cycle;Max_cycle;Signal;HPM_P1;HPM_P2
2022/12/12 00:01:49;;;;;;;25.90;16.53;;;;;;;;;;6284071;22;20437;-75
2022/12/12 00:04:43;;;;;;;25.73;16.97;;;;;;;;;;6283175;22;20453;-74
2022/12/12 00:07:34;;;;;;;25.90;16.80;;;;;;;;;;6280291;22;20746;-75
2022/12/12 00:10:27;;;;;;;24.40;15.53;;;;;;;;;;6286436;22;20412;-74
2022/12/12 00:13:15;;;;;;;25.23;17.10;;;;;;;;;;6286276;22;20440;-75
2022/12/12 00:16:05;;;;;;;29.90;16.87;;;;;;;;;;6286421;22;20432;-75
2022/12/12 00:18:57;;;;;;;23.97;16.27;;;;;;;;;;6285766;22;20439;-74
2022/12/12 00:21:54;;;;;;;26.80;18.20;;;;;;;;;;6288503;22;20506;-74
2022/12/12 00:24:44;;;;;;;26.03;17.17;;;;;;;;;;6288781;22;20483;-75
2022/12/12 00:27:36;;;;;;;25.10;16.40;;;;;;;;;;6289399;22;20411;-76
2022/12/12 00:30:26;;;;;;;26.77;16.20;;;;;;;;;;6287753;22;20437;-76
2022/12/12 00:33:16;;;;;;;23.27;16.87;;;;;;;;;;6283393;22;20443;-74
2022/12/12 00:36:05;;;;;;;25.13;16.83;;;;;;;;;;6286419;22;20432;-75
2022/12/12 00:38:54;;;;;;;28.07;17.57;;;;;;;;;;6284718;22;20459;-74
2022/12/12 00:41:48;;;;;;;27.40;16.87;;;;;;;;;;6282721;22;20443;-75
2022/12/12 00:44:38;;;;;;;27.00;17.67;;;;;;;;;;6284898;22;20466;-75
2022/12/12 00:47:28;;;;;;;25.10;16.90;;;;;;;;;;6284027;22;20472;-75
2022/12/12 00:50:19;;;;;;;26.33;17.40;;;;;;;;;;6285331;22;20415;-74
2022/12/12 00:53:08;;;;;;;30.23;17.93;;;;;;;;;;6283539;22;20515;-75
2022/12/12 00:55:59;;;;;;;27.60;18.00;;;;;;;;;;6293435;22;20435;-74
2022/12/12 00:58:48;;;;;;;30.60;19.80;;;;;;;;;;6281248;22;20435;-76
2022/12/12 01:01:40;;;;;;;25.47;16.63;;;;;;;;;;6290156;22;20438;-74
2022/12/12 01:04:31;;;;;;;25.40;16.67;;;;;;;;;;6294329;22;20440;-75
2022/12/12 01:07:20;;;;;;;26.60;17.13;;;;;;;;;;6283599;22;20429;-74
2022/12/12 01:10:11;;;;;;;26.67;17.60;;;;;;;;;;6283893;22;20500;-75
2022/12/12 01:13:00;;;;;;;27.30;16.57;;;;;;;;;;6284301;22;20455;-74
2022/12/12 01:15:53;;;;;;;25.47;16.90;;;;;;;;;;6284744;22;20440;-75
2022/12/12 01:18:47;;;;;;;25.57;16.90;;;;;;;;;;6287507;22;20425;-74
2022/12/12 01:21:37;;;;;;;26.73;18.40;;;;;;;;;;6292110;22;20436;-75
2022/12/12 01:24:25;;;;;;;25.17;17.10;;;;;;;;;;6284539;22;20438;-75
2022/12/12 01:27:14;;;;;;;27.90;18.27;;;;;;;;;;6285593;22;20443;-74
2022/12/12 01:30:05;;;;;;;26.17;17.37;;;;;;;;;;6285273;22;20413;-74
2022/12/12 01:32:58;;;;;;;26.70;17.47;;;;;;;;;;6277877;22;20444;-75
2022/12/12 01:35:56;;;;;;;28.13;16.97;;;;;;;;;;6284098;22;20929;-75
2022/12/12 01:38:45;;;;;;;28.37;18.30;;;;;;;;;;6281924;22;20408;-75
2022/12/12 01:41:36;;;;;;;28.37;17.60;;;;;;;;;;6294249;22;20461;-75
2022/12/12 01:44:49;;;;;;;24.73;17.50;;;;;;;;;;6284203;22;20437;-75
2022/12/12 01:47:37;;;;;;;26.20;17.13;;;;;;;;;;6283802;22;20414;-75
2022/12/12 01:50:29;;;;;;;26.07;17.40;;;;;;;;;;6282281;22;20398;-74
2022/12/12 01:53:22;;;;;;;28.70;17.50;;;;;;;;;;6283702;22;20450;-74
2022/12/12 01:56:15;;;;;;;25.67;16.97;;;;;;;;;;6286278;22;20437;-74
2022/12/12 01:59:06;;;;;;;28.67;18.07;;;;;;;;;;6282133;22;20446;-74
2022/12/12 02:01:55;;;;;;;26.60;16.97;;;;;;;;;;6279076;22;20447;-75
2022/12/12 02:07:17;;;;;;;30.17;18.67;;;;;;;;;;6134271;23;20415;-82
2022/12/12 02:10:10;;;;;;;31.03;18.70;;;;;;;;;;6136893;23;20418;-81
2022/12/12 02:13:01;;;;;;;26.83;16.73;;;;;;;;;;6126047;23;20447;-82
2022/12/12 02:15:53;;;;;;;29.00;17.60;;;;;;;;;;6201041;22;20432;-80
2022/12/12 02:18:49;;;;;;;29.70;19.67;;;;;;;;;;6280950;22;20423;-81
2022/12/12 02:21:49;;;;;;;28.00;17.13;;;;;;;;;;6285867;22;20444;-84
2022/12/12 02:25:01;;;;;;;29.47;17.50;;;;;;;;;;6276682;22;20415;-81
2022/12/12 02:28:08;;;;;;;24.83;17.33;;;;;;;;;;6292071;22;20419;-84
2022/12/12 02:31:12;;;;;;;24.23;16.50;;;;;;;;;;6298223;22;20441;-86
2022/12/12 02:34:03;;;;;;;27.60;18.40;;;;;;;;;;6284661;22;20448;-83
2022/12/12 02:36:57;;;;;;;26.90;17.27;;;;;;;;;;6298919;22;20429;-81
2022/12/12 02:39:48;;;;;;;25.13;17.13;;;;;;;;;;6300353;22;20426;-82
2022/12/12 02:42:48;;;;;;;32.13;19.00;;;;;;;;;;6281563;22;20449;-81
2022/12/12 02:45:40;;;;;;;29.40;18.03;;;;;;;;;;6293993;22;20774;-80
2022/12/12 02:48:34;;;;;;;30.07;17.40;;;;;;;;;;6292231;22;20429;-80
2022/12/12 02:51:27;;;;;;;27.13;18.13;;;;;;;;;;6280709;22;20441;-80
2022/12/12 02:54:17;;;;;;;32.20;19.20;;;;;;;;;;6291700;22;20416;-85
2022/12/12 02:57:13;;;;;;;31.67;19.37;;;;;;;;;;6278458;22;20413;-82
2022/12/12 03:00:06;;;;;;;29.53;17.90;;;;;;;;;;6278720;22;20452;-80
2022/12/12 03:09:35;;;;;;;28.70;17.80;;;;;;;;;;6289853;22;20437;-81
2022/12/12 03:12:32;;;;;;;26.30;17.80;;;;;;;;;;6279154;22;20449;-86
2022/12/12 03:15:25;;;;;;;28.27;19.00;;;;;;;;;;6290604;22;20433;-80
2022/12/12 03:18:22;;;;;;;30.10;17.80;;;;;;;;;;6289285;22;20492;-86
2022/12/12 03:21:16;;;;;;;27.10;18.17;;;;;;;;;;6286511;22;20438;-80
2022/12/12 03:24:09;;;;;;;29.13;17.20;;;;;;;;;;6288080;22;20399;-80
2022/12/12 03:27:00;;;;;;;29.30;17.70;;;;;;;;;;6288870;22;20504;-80
2022/12/12 03:29:52;;;;;;;31.97;19.10;;;;;;;;;;6288186;22;20398;-80
2022/12/12 03:32:43;;;;;;;29.83;18.50;;;;;;;;;;6292637;22;20442;-80
2022/12/12 03:35:33;;;;;;;28.27;18.07;;;;;;;;;;6287733;22;20438;-83
2022/12/12 03:38:23;;;;;;;32.13;19.00;;;;;;;;;;6300268;22;20413;-82
2022/12/12 03:41:15;;;;;;;30.87;18.90;;;;;;;;;;6289072;22;20441;-82
2022/12/12 03:44:06;;;;;;;29.87;18.30;;;;;;;;;;6294173;22;20409;-80
2022/12/12 03:47:01;;;;;;;29.67;18.33;;;;;;;;;;6294698;22;20437;-80
2022/12/12 03:49:51;;;;;;;28.20;17.60;;;;;;;;;;6297145;22;20410;-84
2022/12/12 03:52:42;;;;;;;27.30;18.60;;;;;;;;;;6285306;22;20467;-82
2022/12/12 03:55:33;;;;;;;29.33;18.23;;;;;;;;;;6284427;22;20437;-82
2022/12/12 03:58:24;;;;;;;27.20;17.17;;;;;;;;;;6285611;22;21076;-83
2022/12/12 04:01:15;;;;;;;32.23;18.67;;;;;;;;;;6288176;22;20442;-80
2022/12/12 04:04:08;;;;;;;29.83;18.80;;;;;;;;;;6286702;22;20438;-80
2022/12/12 04:07:00;;;;;;;29.07;18.50;;;;;;;;;;6285749;22;20437;-80
2022/12/12 04:13:04;;;;;;;27.63;18.07;;;;;;;;;;6276337;22;20512;-79
2022/12/12 04:15:58;;;;;;;28.20;17.70;;;;;;;;;;6285308;22;20453;-79
2022/12/12 04:18:52;;;;;;;28.67;19.00;;;;;;;;;;6286867;22;20739;-79
2022/12/12 04:25:10;;;;;;;30.30;18.00;;;;;;;;;;6263155;22;20438;-79
2022/12/12 04:28:02;;;;;;;33.67;18.97;;;;;;;;;;6273616;22;20407;-80
2022/12/12 04:31:01;;;;;;;29.60;18.97;;;;;;;;;;6273034;22;20599;-79
2022/12/12 04:33:58;;;;;;;29.97;18.10;;;;;;;;;;6238208;22;20512;-80
2022/12/12 04:36:50;;;;;;;32.30;19.47;;;;;;;;;;6284087;22;20500;-80
2022/12/12 04:39:42;;;;;;;32.73;18.73;;;;;;;;;;6284338;22;20414;-79
2022/12/12 04:42:35;;;;;;;32.83;20.07;;;;;;;;;;6272547;22;20780;-79
2022/12/12 04:45:25;;;;;;;30.80;18.77;;;;;;;;;;6284655;22;20438;-80
2022/12/12 04:48:28;;;;;;;28.07;18.53;;;;;;;;;;6283416;22;20418;-83
2022/12/12 04:51:21;;;;;;;28.90;19.17;;;;;;;;;;6282694;22;20408;-81
2022/12/12 04:54:11;;;;;;;30.83;19.37;;;;;;;;;;6284018;22;20406;-79
2022/12/12 04:57:06;;;;;;;27.93;17.93;;;;;;;;;;6272196;22;20436;-80
2022/12/12 04:59:55;;;;;;;30.90;19.20;;;;;;;;;;6283636;22;20915;-79
2022/12/12 05:02:48;;;;;;;29.00;18.43;;;;;;;;;;6276006;22;20612;-80
2022/12/12 05:05:51;;;;;;;27.50;17.63;;;;;;;;;;6283805;22;20468;-79
2022/12/12 05:08:44;;;;;;;30.03;17.80;;;;;;;;;;6284012;22;20416;-79
2022/12/12 05:11:40;;;;;;;29.97;20.00;;;;;;;;;;6281315;22;20782;-80
2022/12/12 05:14:30;;;;;;;31.83;19.00;;;;;;;;;;6285675;22;20409;-81
2022/12/12 05:17:24;;;;;;;27.87;19.43;;;;;;;;;;6283487;22;20996;-80
2022/12/12 05:20:13;;;;;;;32.57;19.73;;;;;;;;;;6284421;22;20437;-81
2022/12/12 05:23:04;;;;;;;32.73;20.30;;;;;;;;;;6274625;22;20449;-80
2022/12/12 05:25:53;;;;;;;28.60;18.73;;;;;;;;;;6285256;22;20430;-80
2022/12/12 05:28:42;;;;;;;32.00;19.63;;;;;;;;;;6283384;22;20539;-80
2022/12/12 05:31:34;;;;;;;36.40;20.20;;;;;;;;;;6278821;22;20438;-83
2022/12/12 05:34:25;;;;;;;31.93;19.53;;;;;;;;;;6282240;22;20410;-79
2022/12/12 05:37:16;;;;;;;30.23;18.80;;;;;;;;;;6281087;22;20455;-85
2022/12/12 05:40:07;;;;;;;30.60;18.67;;;;;;;;;;6283402;22;20409;-79
2022/12/12 05:42:58;;;;;;;30.40;19.67;;;;;;;;;;6273283;22;20438;-79
2022/12/12 05:45:52;;;;;;;30.40;19.87;;;;;;;;;;6280005;22;20459;-80
2022/12/12 05:48:42;;;;;;;31.43;19.60;;;;;;;;;;6282653;22;20453;-79
2022/12/12 05:51:31;;;;;;;34.07;21.13;;;;;;;;;;6279353;22;20449;-83
2022/12/12 05:54:22;;;;;;;34.60;21.83;;;;;;;;;;6280459;22;20437;-79
2022/12/12 05:57:16;;;;;;;32.13;20.93;;;;;;;;;;6278974;22;20417;-82
2022/12/12 06:00:05;;;;;;;34.80;21.13;;;;;;;;;;6282843;22;20419;-79
2022/12/12 06:02:54;;;;;;;32.13;20.13;;;;;;;;;;6272250;22;21210;-81
2022/12/12 06:05:43;;;;;;;33.13;21.10;;;;;;;;;;6277741;22;20635;-79
2022/12/12 06:08:33;;;;;;;31.03;19.07;;;;;;;;;;6281436;22;20413;-80
2022/12/12 06:11:23;;;;;;;32.83;20.77;;;;;;;;;;6278973;22;20409;-83
2022/12/12 06:14:14;;;;;;;34.37;21.10;;;;;;;;;;6281022;22;20420;-79
2022/12/12 06:17:03;;;;;;;34.60;20.30;;;;;;;;;;6279875;22;20456;-80
2022/12/12 06:19:52;;;;;;;29.63;20.67;;;;;;;;;;6277577;22;20425;-83
2022/12/12 06:22:44;;;;;;;35.07;20.47;;;;;;;;;;6271840;22;20456;-80
2022/12/12 06:25:43;;;;;;;36.67;21.17;;;;;;;;;;6283906;22;20433;-79
2022/12/12 06:28:39;;;;;;;29.90;20.87;;;;;;;;;;6283799;22;20414;-79
2022/12/12 06:31:29;;;;;;;32.13;19.40;;;;;;;;;;6280403;22;20434;-80
2022/12/12 06:34:18;;;;;;;30.73;18.67;;;;;;;;;;6284674;22;20418;-79
2022/12/12 06:37:08;;;;;;;28.50;19.90;;;;;;;;;;6284541;22;20490;-80
2022/12/12 06:40:05;;;;;;;36.93;21.47;;;;;;;;;;6283142;22;20417;-80
2022/12/12 06:42:54;;;;;;;35.23;20.87;;;;;;;;;;6273210;22;20446;-80
2022/12/12 06:45:46;;;;;;;35.40;20.87;;;;;;;;;;6283679;22;20432;-81
2022/12/12 06:48:36;;;;;;;33.10;20.77;;;;;;;;;;6283390;22;20416;-79
2022/12/12 06:51:27;;;;;;;32.30;21.20;;;;;;;;;;6281515;22;20972;-80
2022/12/12 06:54:18;;;;;;;37.07;22.03;;;;;;;;;;6284229;22;20417;-80
2022/12/12 06:57:09;;;;;;;30.43;21.13;;;;;;;;;;6285026;22;20413;-80
2022/12/12 06:59:58;;;;;;;34.70;21.67;;;;;;;;;;6285013;22;20978;-80
2022/12/12 07:02:47;;;;;;;38.50;23.13;;;;;;;;;;6277035;22;20448;-83
2022/12/12 07:05:40;;;;;;;35.10;21.90;;;;;;;;;;6284180;22;20441;-82
2022/12/12 07:08:34;;;;;;;31.53;19.70;;;;;;;;;;6284662;22;20417;-79
2022/12/12 07:11:26;;;;;;;33.60;20.90;;;;;;;;;;6279048;22;20408;-80
2022/12/12 07:14:18;;;;;;;37.00;21.43;;;;;;;;;;6284967;22;20420;-79
2022/12/12 07:17:09;;;;;;;35.30;21.90;;;;;;;;;;6282035;22;20420;-82
2022/12/12 07:19:58;;;;;;;33.27;21.20;;;;;;;;;;6280006;22;20421;-80
2022/12/12 07:22:48;;;;;;;36.23;22.00;;;;;;;;;;6276853;22;20958;-78
2022/12/12 07:25:38;;;;;;;35.80;22.23;;;;;;;;;;6286127;22;20424;-79
2022/12/12 07:28:26;;;;;;;33.93;22.50;;;;;;;;;;6284665;22;20466;-78
2022/12/12 07:31:16;;;;;;;33.47;22.70;;;;;;;;;;6284890;22;20417;-78
2022/12/12 07:34:04;;;;;;;35.53;22.60;;;;;;;;;;6274541;22;20410;-81
2022/12/12 07:36:57;;;;;;;36.50;21.80;;;;;;;;;;6283976;22;20437;-82
2022/12/12 07:39:55;;;;;;;29.60;20.43;;;;;;;;;;6287898;22;20489;-79
2022/12/12 07:42:51;;;;;;;35.37;22.10;;;;;;;;;;6276228;22;20454;-79
2022/12/12 07:45:39;;;;;;;40.70;22.67;;;;;;;;;;6284316;22;20433;-79
2022/12/12 07:48:31;;;;;;;36.27;21.90;;;;;;;;;;6276754;22;20417;-79
2022/12/12 07:51:26;;;;;;;41.77;24.23;;;;;;;;;;6277345;22;20410;-79
2022/12/12 07:54:16;;;;;;;40.80;25.43;;;;;;;;;;6274721;22;20418;-79
2022/12/12 07:57:06;;;;;;;35.80;23.50;;;;;;;;;;6283863;22;20951;-79
2022/12/12 07:59:57;;;;;;;36.20;24.10;;;;;;;;;;6284055;22;20410;-78
2022/12/12 08:02:50;;;;;;;35.33;24.10;;;;;;;;;;6275271;22;20507;-78
2022/12/12 08:05:40;;;;;;;40.70;24.17;;;;;;;;;;6276052;22;21301;-74
2022/12/12 08:08:30;;;;;;;37.20;22.73;;;;;;;;;;6275798;22;20422;-74
2022/12/12 08:11:25;;;;;;;40.70;24.80;;;;;;;;;;6272581;22;20413;-73
2022/12/12 08:14:15;;;;;;;37.80;23.63;;;;;;;;;;6278145;22;20420;-73
2022/12/12 08:17:08;;;;;;;37.37;23.40;;;;;;;;;;6275151;22;20477;-73
2022/12/12 08:19:56;;;;;;;36.17;22.27;;;;;;;;;;6273347;22;20413;-73
2022/12/12 08:22:45;;;;;;;33.63;22.37;;;;;;;;;;6270315;22;20446;-73
2022/12/12 08:25:35;;;;;;;41.47;25.83;;;;;;;;;;6274450;22;20417;-73
2022/12/12 08:28:25;;;;;;;38.23;24.23;;;;;;;;;;6275316;22;20429;-74
2022/12/12 08:31:19;;;;;;;39.80;23.93;;;;;;;;;;6272306;22;20906;-73
2022/12/12 08:34:16;;;;;;;40.13;24.10;;;;;;;;;;6278712;22;20410;-73
2022/12/12 08:37:06;;;;;;;39.60;24.00;;;;;;;;;;6279226;22;20521;-72
2022/12/12 08:39:54;;;;;;;37.33;23.10;;;;;;;;;;6278759;22;20428;-73
2022/12/12 08:42:43;;;;;;;37.03;23.97;;;;;;;;;;6289232;22;20452;-74
2022/12/12 08:45:34;;;;;;;40.90;25.10;;;;;;;;;;6288873;22;20436;-72
2022/12/12 08:48:26;;;;;;;40.63;24.57;;;;;;;;;;6287462;22;20409;-72
2022/12/12 08:51:21;;;;;;;37.60;24.53;;;;;;;;;;6295440;22;20440;-73
2022/12/12 08:54:11;;;;;;;34.90;23.30;;;;;;;;;;6290278;22;20406;-73
2022/12/12 08:57:01;;;;;;;40.67;24.37;;;;;;;;;;6280380;22;20430;-73
2022/12/12 08:59:55;;;;;;;36.53;24.20;;;;;;;;;;6282157;22;20406;-75
2022/12/12 09:02:45;;;;;;;34.90;23.60;;;;;;;;;;6281499;22;20457;-74
2022/12/12 09:05:35;;;;;;;35.87;23.00;;;;;;;;;;6281068;22;20409;-73
2022/12/12 09:08:24;;;;;;;39.03;23.13;;;;;;;;;;6279261;22;20417;-74
2022/12/12 09:11:14;;;;;;;35.87;23.13;;;;;;;;;;6280096;22;20463;-73
2022/12/12 09:14:05;;;;;;;39.43;22.70;;;;;;;;;;6278118;22;20492;-73
2022/12/12 09:16:56;;;;;;;40.73;26.97;;;;;;;;;;6288381;22;20436;-73
2022/12/12 09:19:47;;;;;;;39.57;25.63;;;;;;;;;;6278670;22;20426;-73
2022/12/12 09:22:44;;;;;;;43.87;25.90;;;;;;;;;;6275158;22;20449;-73
2022/12/12 09:25:36;;;;;;;42.17;24.87;;;;;;;;;;6275475;22;20754;-73
2022/12/12 09:28:33;;;;;;;41.43;24.70;;;;;;;;;;6279434;22;20440;-72
2022/12/12 09:31:23;;;;;;;38.00;24.60;;;;;;;;;;6271651;22;20406;-72
2022/12/12 09:34:12;;;;;;;39.40;25.63;;;;;;;;;;6278766;22;20414;-73
2022/12/12 09:37:01;;;;;;;40.27;25.13;;;;;;;;;;6277256;22;20427;-74
2022/12/12 09:39:53;;;;;;;37.57;23.70;;;;;;;;;;6288645;22;20410;-75
2022/12/12 09:42:47;;;;;;;39.37;24.67;;;;;;;;;;6277829;22;20445;-72
2022/12/12 09:45:39;;;;;;;36.97;26.13;;;;;;;;;;6277602;22;20888;-73
2022/12/12 09:48:31;;;;;;;37.87;23.70;;;;;;;;;;6274667;22;20413;-72
2022/12/12 09:51:20;;;;;;;41.40;23.90;;;;;;;;;;6277436;22;20499;-73
2022/12/12 09:54:13;;;;;;;42.90;23.30;;;;;;;;;;6275305;22;20414;-73
2022/12/12 09:57:23;;;;;;;39.87;23.40;;;;;;;;;;6278701;22;20425;-73
2022/12/12 10:00:15;;;;;;;36.40;23.10;;;;;;;;;;6278550;22;20406;-74
2022/12/12 10:03:14;;;;;;;41.43;24.00;;;;;;;;;;6275515;22;20451;-73
2022/12/12 10:06:05;;;;;;;39.60;23.97;;;;;;;;;;6276038;22;20456;-72
2022/12/12 10:09:29;;;;;;;40.13;25.40;;;;;;;;;;6279446;22;20417;-73
2022/12/12 10:12:20;;;;;;;37.57;24.30;;;;;;;;;;6275807;22;20437;-72
2022/12/12 10:15:16;;;;;;;36.00;24.90;;;;;;;;;;6277464;22;20413;-74
2022/12/12 10:18:07;;;;;;;37.57;24.00;;;;;;;;;;6282490;22;20627;-74
2022/12/12 10:20:57;;;;;;;33.70;22.33;;;;;;;;;;6292199;22;20414;-74
2022/12/12 10:23:49;;;;;;;36.63;21.33;;;;;;;;;;6282211;22;20457;-72
2022/12/12 10:26:42;;;;;;;31.00;19.07;;;;;;;;;;6283684;22;20431;-75
2022/12/12 10:29:34;;;;;;;33.40;18.90;;;;;;;;;;6280978;22;20411;-73
2022/12/12 10:32:38;;;;;;;28.97;17.87;;;;;;;;;;6282982;22;20438;-73
2022/12/12 10:35:33;;;;;;;28.37;16.17;;;;;;;;;;6285489;22;20441;-74
2022/12/12 10:38:32;;;;;;;26.37;16.73;;;;;;;;;;6281345;22;21058;-74
2022/12/12 10:41:28;;;;;;;31.07;18.77;;;;;;;;;;6285088;22;20554;-74
2022/12/12 10:44:26;;;;;;;35.33;19.90;;;;;;;;;;6278107;22;20441;-72
2022/12/12 10:47:19;;;;;;;33.77;18.60;;;;;;;;;;6292707;22;20429;-72
2022/12/12 10:50:21;;;;;;;32.40;17.60;;;;;;;;;;6282094;22;20415;-73
2022/12/12 10:53:11;;;;;;;31.57;18.47;;;;;;;;;;6279483;22;21071;-74
2022/12/12 10:56:01;;;;;;;35.90;19.67;;;;;;;;;;6284529;22;20521;-73
2022/12/12 10:58:57;;;;;;;37.30;19.87;;;;;;;;;;6287283;22;20401;-74
2022/12/12 11:01:57;;;;;;;35.13;20.40;;;;;;;;;;6282341;22;20457;-73
2022/12/12 11:05:02;;;;;;;35.93;20.53;;;;;;;;;;6285049;22;20439;-73
2022/12/12 11:07:58;;;;;;;34.57;18.67;;;;;;;;;;6278422;22;20420;-72
2022/12/12 11:10:58;;;;;;;35.53;18.93;;;;;;;;;;6283925;22;20419;-74
2022/12/12 11:13:51;;;;;;;33.10;20.13;;;;;;;;;;6284926;22;20500;-73
2022/12/12 11:16:45;;;;;;;36.30;22.07;;;;;;;;;;6289380;22;20519;-75
2022/12/12 11:19:41;;;;;;;31.93;20.27;;;;;;;;;;6288259;22;20631;-74
2022/12/12 11:22:33;;;;;;;35.33;19.93;;;;;;;;;;6295199;22;20448;-74
2022/12/12 11:25:26;;;;;;;33.00;20.10;;;;;;;;;;6297476;22;20427;-74
2022/12/12 11:28:22;;;;;;;33.53;20.67;;;;;;;;;;6287814;22;20989;-74
2022/12/12 11:31:15;;;;;;;31.77;19.70;;;;;;;;;;6284937;22;20416;-75
2022/12/12 11:34:11;;;;;;;37.30;21.17;;;;;;;;;;6289131;22;20433;-74
2022/12/12 11:37:03;;;;;;;34.87;19.50;;;;;;;;;;6283201;22;20444;-75
2022/12/12 11:39:57;;;;;;;32.10;19.30;;;;;;;;;;6287030;22;20404;-75
2022/12/12 11:42:46;;;;;;;34.50;21.57;;;;;;;;;;6284361;22;20456;-75
2022/12/12 11:45:34;;;;;;;35.87;20.07;;;;;;;;;;6278174;22;20448;-74
2022/12/12 11:48:36;;;;;;;32.13;20.60;;;;;;;;;;6282215;22;20403;-75
2022/12/12 11:51:35;;;;;;;34.00;20.10;;;;;;;;;;6280615;22;20437;-75
2022/12/12 11:54:27;;;;;;;35.33;20.10;;;;;;;;;;6284022;22;20431;-75
2022/12/12 11:57:24;;;;;;;33.67;20.30;;;;;;;;;;6287576;22;20433;-75
2022/12/12 12:00:25;;;;;;;35.23;20.40;;;;;;;;;;6297523;22;20436;-74
2022/12/12 12:03:27;;;;;;;33.87;20.23;;;;;;;;;;6288868;22;20448;-74
2022/12/12 12:06:26;;;;;;;43.13;21.97;;;;;;;;;;6294196;22;20452;-75
2022/12/12 12:09:23;;;;;;;33.50;19.80;;;;;;;;;;6295290;22;20495;-75
2022/12/12 12:12:16;;;;;;;36.80;21.40;;;;;;;;;;6282424;22;20514;-74
2022/12/12 12:15:23;;;;;;;34.20;20.63;;;;;;;;;;6295708;22;20909;-75
2022/12/12 12:18:28;;;;;;;35.47;21.40;;;;;;;;;;6298947;22;20418;-75
2022/12/12 12:21:30;;;;;;;31.87;21.67;;;;;;;;;;6292630;22;20417;-76
2022/12/12 12:24:32;;;;;;;33.37;20.37;;;;;;;;;;6282564;22;20436;-74
2022/12/12 12:27:28;;;;;;;34.10;20.40;;;;;;;;;;6282821;22;20450;-74
2022/12/12 12:30:23;;;;;;;35.23;22.33;;;;;;;;;;6286395;22;20943;-74
2022/12/12 12:33:31;;;;;;;33.23;20.73;;;;;;;;;;6282103;22;20450;-75
2022/12/12 12:36:23;;;;;;;31.27;20.27;;;;;;;;;;6275566;22;20433;-72
2022/12/12 12:39:17;;;;;;;31.27;19.67;;;;;;;;;;6275298;22;20494;-73
2022/12/12 12:42:15;;;;;;;29.73;19.63;;;;;;;;;;6275781;22;21302;-72
2022/12/12 12:45:07;;;;;;;34.63;21.03;;;;;;;;;;6281627;22;20459;-75
2022/12/12 12:48:10;;;;;;;34.30;19.87;;;;;;;;;;6285191;22;20807;-75
2022/12/12 12:51:08;;;;;;;28.47;18.83;;;;;;;;;;6272830;22;20419;-73
2022/12/12 12:54:02;;;;;;;34.37;21.13;;;;;;;;;;6274634;22;20447;-71
2022/12/12 12:56:57;;;;;;;31.87;21.67;;;;;;;;;;6278060;22;20428;-73
2022/12/12 12:59:56;;;;;;;33.07;20.07;;;;;;;;;;6277746;22;21025;-74
2022/12/12 13:02:51;;;;;;;32.80;20.83;;;;;;;;;;6278819;22;20441;-73
2022/12/12 13:05:46;;;;;;;31.17;19.70;;;;;;;;;;6278900;22;20440;-74
2022/12/12 13:08:48;;;;;;;35.53;21.20;;;;;;;;;;6272505;22;20487;-73
2022/12/12 13:11:43;;;;;;;30.50;19.47;;;;;;;;;;6277239;22;20444;-73
2022/12/12 13:14:38;;;;;;;28.50;18.87;;;;;;;;;;6279485;22;20407;-73
2022/12/12 13:17:33;;;;;;;30.87;20.63;;;;;;;;;;6275557;22;20451;-74
2022/12/12 13:20:28;;;;;;;33.70;20.67;;;;;;;;;;6277513;22;20412;-74
2022/12/12 13:23:32;;;;;;;32.37;19.40;;;;;;;;;;6280964;22;20451;-75
2022/12/12 13:26:27;;;;;;;27.70;19.03;;;;;;;;;;6275812;22;20424;-74
2022/12/12 13:29:28;;;;;;;30.10;20.00;;;;;;;;;;6278892;22;20416;-73
2022/12/12 13:32:35;;;;;;;33.43;20.63;;;;;;;;;;6274378;22;21035;-73
2022/12/12 13:35:37;;;;;;;29.73;20.50;;;;;;;;;;6276596;22;20406;-72
2022/12/12 13:38:38;;;;;;;32.00;20.73;;;;;;;;;;6278144;22;20418;-78
2022/12/12 13:41:31;;;;;;;34.17;20.30;;;;;;;;;;6274928;22;20512;-74
2022/12/12 13:44:34;;;;;;;29.10;20.00;;;;;;;;;;6281062;22;20411;-75
2022/12/12 13:47:43;;;;;;;34.13;20.80;;;;;;;;;;6276483;22;20436;-75
2022/12/12 13:50:32;;;;;;;33.73;20.77;;;;;;;;;;6275053;22;20402;-74
2022/12/12 13:53:20;;;;;;;34.47;21.23;;;;;;;;;;6275680;22;20798;-74
2022/12/12 13:56:26;;;;;;;33.73;21.63;;;;;;;;;;6280116;22;20436;-74
2022/12/12 13:59:30;;;;;;;31.00;19.13;;;;;;;;;;6288940;22;20409;-73
2022/12/12 14:02:26;;;;;;;29.00;20.00;;;;;;;;;;6271481;22;20452;-74
2022/12/12 14:05:17;;;;;;;32.57;20.27;;;;;;;;;;6276673;22;20444;-73
2022/12/12 14:08:08;;;;;;;35.23;20.47;;;;;;;;;;6263092;22;20912;-74
2022/12/12 14:11:24;;;;;;;33.70;20.50;;;;;;;;;;6268269;22;20411;-72
2022/12/12 14:14:25;;;;;;;28.90;19.50;;;;;;;;;;6265980;22;20411;-71
2022/12/12 14:17:20;;;;;;;33.47;19.93;;;;;;;;;;6267286;22;20437;-73
2022/12/12 14:20:25;;;;;;;31.03;20.23;;;;;;;;;;6278684;22;20573;-72
2022/12/12 14:23:30;;;;;;;34.37;20.87;;;;;;;;;;6267613;22;20789;-73
2022/12/12 14:26:39;;;;;;;33.53;20.53;;;;;;;;;;6269477;22;20783;-72
2022/12/12 14:29:31;;;;;;;35.70;20.50;;;;;;;;;;6264876;22;20966;-73
2022/12/12 14:32:37;;;;;;;32.77;20.83;;;;;;;;;;6265627;22;20456;-72
2022/12/12 14:35:34;;;;;;;31.20;20.00;;;;;;;;;;6263885;22;20405;-72
2022/12/12 14:38:28;;;;;;;30.43;19.90;;;;;;;;;;6263949;22;20932;-72
2022/12/12 14:41:30;;;;;;;33.87;21.10;;;;;;;;;;6265864;22;20414;-72
2022/12/12 14:44:29;;;;;;;39.40;21.90;;;;;;;;;;6265769;22;20430;-72
2022/12/12 14:47:34;;;;;;;36.20;21.70;;;;;;;;;;6263754;22;20428;-71
2022/12/12 14:50:24;;;;;;;43.97;23.70;;;;;;;;;;6268790;22;20406;-73
2022/12/12 14:53:27;;;;;;;40.50;24.63;;;;;;;;;;6265595;22;20487;-74
2022/12/12 14:56:18;;;;;;;40.33;23.57;;;;;;;;;;6276179;22;20763;-73
2022/12/12 14:59:07;;;;;;;37.87;23.93;;;;;;;;;;6274751;22;20415;-73
2022/12/12 15:01:56;;;;;;;41.90;23.00;;;;;;;;;;6260326;22;20451;-73
2022/12/12 15:04:53;;;;;;;39.90;23.00;;;;;;;;;;6266044;22;20409;-72
2022/12/12 15:08:01;;;;;;;37.73;22.60;;;;;;;;;;6273035;22;20435;-71
2022/12/12 15:11:00;;;;;;;40.00;21.83;;;;;;;;;;6266712;22;20959;-73
2022/12/12 15:13:57;;;;;;;36.73;22.50;;;;;;;;;;6266121;22;20437;-73
2022/12/12 15:16:48;;;;;;;36.17;23.20;;;;;;;;;;6265825;22;20488;-72
2022/12/12 15:19:49;;;;;;;38.60;23.03;;;;;;;;;;6267930;22;20414;-73
2022/12/12 15:22:52;;;;;;;38.63;23.43;;;;;;;;;;6268315;22;20438;-72
2022/12/12 15:25:45;;;;;;;43.17;24.73;;;;;;;;;;6268632;22;20431;-72
2022/12/12 15:28:36;;;;;;;43.80;26.00;;;;;;;;;;6271204;22;20794;-73
2022/12/12 15:31:30;;;;;;;42.10;26.30;;;;;;;;;;6268365;22;20414;-73
2022/12/12 15:34:36;;;;;;;49.17;28.07;;;;;;;;;;6269065;22;20412;-73
2022/12/12 15:37:32;;;;;;;41.50;26.27;;;;;;;;;;6278887;22;20536;-73
2022/12/12 15:40:31;;;;;;;39.67;25.00;;;;;;;;;;6270379;22;20904;-74
2022/12/12 15:43:22;;;;;;;39.13;23.17;;;;;;;;;;6271427;22;20455;-74
2022/12/12 15:46:14;;;;;;;38.57;22.53;;;;;;;;;;6267580;22;21221;-72
2022/12/12 15:49:07;;;;;;;33.57;21.47;;;;;;;;;;6265220;22;20406;-73
2022/12/12 15:52:13;;;;;;;37.00;22.23;;;;;;;;;;6267798;22;20449;-74
2022/12/12 15:55:06;;;;;;;37.90;21.87;;;;;;;;;;6277873;22;20764;-73
2022/12/12 15:58:13;;;;;;;31.47;18.83;;;;;;;;;;6261970;22;20438;-72
2022/12/12 16:01:20;;;;;;;38.10;21.90;;;;;;;;;;6268777;22;20417;-73
2022/12/12 16:04:24;;;;;;;38.30;21.60;;;;;;;;;;6271827;22;20410;-73
2022/12/12 16:07:21;;;;;;;33.10;20.50;;;;;;;;;;6271222;22;20460;-72
2022/12/12 16:10:21;;;;;;;33.13;21.13;;;;;;;;;;6270383;22;20520;-72
2022/12/12 16:13:25;;;;;;;34.17;20.77;;;;;;;;;;6265145;22;20540;-71
2022/12/12 16:16:51;;;;;;;32.97;21.20;;;;;;;;;;6271163;22;20410;-73
2022/12/12 16:19:46;;;;;;;37.03;19.70;;;;;;;;;;6177359;23;20405;-73
2022/12/12 16:22:38;;;;;;;32.97;20.60;;;;;;;;;;6179722;23;21009;-73
2022/12/12 16:25:36;;;;;;;40.63;22.77;;;;;;;;;;6283320;22;20512;-73
2022/12/12 16:28:25;;;;;;;34.90;22.33;;;;;;;;;;6267688;22;20437;-72
2022/12/12 16:31:15;;;;;;;37.63;20.93;;;;;;;;;;6267496;22;20783;-73
2022/12/12 16:34:07;;;;;;;37.57;24.43;;;;;;;;;;6264280;22;20416;-73
2022/12/12 16:36:57;;;;;;;38.80;22.60;;;;;;;;;;6276692;22;20456;-73
2022/12/12 16:39:47;;;;;;;37.87;22.87;;;;;;;;;;6268988;22;21046;-74
2022/12/12 16:42:36;;;;;;;48.43;25.70;;;;;;;;;;6269790;22;20449;-73
2022/12/12 16:45:25;;;;;;;36.03;22.67;;;;;;;;;;6279936;22;20419;-72
2022/12/12 16:48:21;;;;;;;44.17;25.27;;;;;;;;;;6275148;22;20520;-74
2022/12/12 16:51:16;;;;;;;45.37;25.90;;;;;;;;;;6281503;22;20756;-74
2022/12/12 16:54:14;;;;;;;60.60;36.67;;;;;;;;;;6292240;22;20413;-74
2022/12/12 16:57:06;;;;;;;74.67;43.87;;;;;;;;;;6286110;22;20426;-73
2022/12/12 16:59:59;;;;;;;82.33;48.57;;;;;;;;;;6288372;22;20406;-73
2022/12/12 17:02:49;;;;;;;63.13;38.60;;;;;;;;;;6284929;22;20472;-73
2022/12/12 17:05:40;;;;;;;60.73;37.80;;;;;;;;;;6270643;22;20421;-74
2022/12/12 17:08:28;;;;;;;55.20;32.67;;;;;;;;;;6267745;22;20448;-73